sensor_id;sensor_type;location;lat;lon;timestamp;pressure;altitude;pressure_sealevel;temperature;humidity
5905;BME280;2978;42.012;24.880;2023-04-07T00:01:45;98556.16;;;8.95;41.22
5905;BME280;2978;42.012;24.880;2023-04-07T00:04:11;98546.81;;;8.96;40.64
5905;BME280;2978;42.012;24.880;2023-04-07T00:06:36;98536.41;;;8.93;40.71
5905;BME280;2978;42.012;24.880;2023-04-07T00:09:01;98556.94;;;8.91;40.23
5905;BME280;2978;42.012;24.880;2023-04-07T00:11:27;98554.47;;;8.89;40.35
5905;BME280;2978;42.012;24.880;2023-04-07T00:13:52;98546.25;;;8.89;40.58
5905;BME280;2978;42.012;24.880;2023-04-07T00:16:18;98556.94;;;8.86;40.43
5905;BME280;2978;42.012;24.880;2023-04-07T00:18:43;98549.84;;;8.95;40.96
5905;BME280;2978;42.012;24.880;2023-04-07T00:21:09;98556.16;;;9.00;40.77
5905;BME280;2978;42.012;24.880;2023-04-07T00:23:34;98550.13;;;8.98;40.16
5905;BME280;2978;42.012;24.880;2023-04-07T00:26:00;98553.41;;;9.00;40.30
5905;BME280;2978;42.012;24.880;2023-04-07T00:28:25;98546.03;;;9.06;40.20
5905;BME280;2978;42.012;24.880;2023-04-07T00:30:51;98545.19;;;8.95;39.52
5905;BME280;2978;42.012;24.880;2023-04-07T00:33:16;98540.53;;;8.96;39.26
5905;BME280;2978;42.012;24.880;2023-04-07T00:35:42;98552.84;;;8.93;39.44
5905;BME280;2978;42.012;24.880;2023-04-07T00:38:07;98556.16;;;9.00;39.28
5905;BME280;2978;42.012;24.880;2023-04-07T00:40:32;98549.56;;;8.96;39.33
5905;BME280;2978;42.012;24.880;2023-04-07T00:42:58;98551.25;;;9.07;39.30
5905;BME280;2978;42.012;24.880;2023-04-07T00:45:23;98560.31;;;9.08;39.28
5905;BME280;2978;42.012;24.880;2023-04-07T00:47:49;98549.59;;;9.06;39.11
5905;BME280;2978;42.012;24.880;2023-04-07T00:50:14;98555.06;;;9.01;38.92
5905;BME280;2978;42.012;24.880;2023-04-07T00:52:40;98557.00;;;9.01;39.30
5905;BME280;2978;42.012;24.880;2023-04-07T00:55:06;98554.81;;;9.08;38.68
5905;BME280;2978;42.012;24.880;2023-04-07T00:57:32;98555.06;;;9.01;38.66
5905;BME280;2978;42.012;24.880;2023-04-07T00:59:57;98557.00;;;9.06;38.62
5905;BME280;2978;42.012;24.880;2023-04-07T01:02:31;98553.41;;;9.00;38.70
5905;BME280;2978;42.012;24.880;2023-04-07T01:13:27;98547.59;;;8.77;39.22
5905;BME280;2978;42.012;24.880;2023-04-07T01:15:57;98548.94;;;8.74;39.13
5905;BME280;2978;42.012;24.880;2023-04-07T01:18:31;98548.38;;;8.72;39.58
5905;BME280;2978;42.012;24.880;2023-04-07T01:21:01;98540.97;;;8.63;39.87
5905;BME280;2978;42.012;24.880;2023-04-07T01:26:22;98554.38;;;8.59;39.84
5905;BME280;2978;42.012;24.880;2023-04-07T01:29:10;98560.09;;;8.58;39.99
5905;BME280;2978;42.012;24.880;2023-04-07T01:31:39;98546.63;;;8.46;39.64
5905;BME280;2978;42.012;24.880;2023-04-07T01:34:08;98546.63;;;8.46;39.73
5905;BME280;2978;42.012;24.880;2023-04-07T01:36:35;98564.78;;;8.57;40.09
5905;BME280;2978;42.012;24.880;2023-04-07T01:39:00;98556.00;;;8.60;39.74
5905;BME280;2978;42.012;24.880;2023-04-07T01:41:27;98565.56;;;8.58;40.14
5905;BME280;2978;42.012;24.880;2023-04-07T01:43:53;98578.50;;;8.62;39.65
5905;BME280;2978;42.012;24.880;2023-04-07T01:46:19;98564.53;;;8.64;40.29
5905;BME280;2978;42.012;24.880;2023-04-07T01:48:46;98553.84;;;8.62;40.14
5905;BME280;2978;42.012;24.880;2023-04-07T01:51:13;98565.34;;;8.64;40.21
5905;BME280;2978;42.012;24.880;2023-04-07T01:53:44;98562.88;;;8.63;39.98
5905;BME280;2978;42.012;24.880;2023-04-07T01:56:10;98567.00;;;8.65;40.12
5905;BME280;2978;42.012;24.880;2023-04-07T01:58:36;98565.91;;;8.66;40.18
5905;BME280;2978;42.012;24.880;2023-04-07T02:01:01;98562.34;;;8.66;39.51
5905;BME280;2978;42.012;24.880;2023-04-07T02:03:30;98561.22;;;8.67;39.86
5905;BME280;2978;42.012;24.880;2023-04-07T02:06:03;98557.69;;;8.66;39.29
5905;BME280;2978;42.012;24.880;2023-04-07T02:08:31;98553.28;;;8.65;39.41
5905;BME280;2978;42.012;24.880;2023-04-07T02:10:59;98548.84;;;8.54;39.90
5905;BME280;2978;42.012;24.880;2023-04-07T02:13:28;98558.19;;;8.58;39.89
5905;BME280;2978;42.012;24.880;2023-04-07T02:15:55;98555.16;;;8.55;40.15
5905;BME280;2978;42.012;24.880;2023-04-07T02:18:22;98552.41;;;8.50;39.71
5905;BME280;2978;42.012;24.880;2023-04-07T02:20:51;98555.88;;;8.35;39.63
5905;BME280;2978;42.012;24.880;2023-04-07T02:23:16;98563.31;;;8.40;39.33
5905;BME280;2978;42.012;24.880;2023-04-07T02:25:42;98556.16;;;8.34;39.72
5905;BME280;2978;42.012;24.880;2023-04-07T02:28:07;98564.59;;;8.27;39.02
5905;BME280;2978;42.012;24.880;2023-04-07T02:30:33;98555.00;;;8.25;39.85
5905;BME280;2978;42.012;24.880;2023-04-07T02:32:59;98564.34;;;8.34;39.57
5905;BME280;2978;42.012;24.880;2023-04-07T02:35:25;98553.47;;;8.44;39.58
5905;BME280;2978;42.012;24.880;2023-04-07T02:37:51;98564.69;;;8.47;39.91
5905;BME280;2978;42.012;24.880;2023-04-07T02:40:16;98563.09;;;8.56;38.78
5905;BME280;2978;42.012;24.880;2023-04-07T02:42:42;98571.28;;;8.46;38.71
5905;BME280;2978;42.012;24.880;2023-04-07T02:45:08;98564.94;;;8.41;39.57
5905;BME280;2978;42.012;24.880;2023-04-07T02:47:34;98571.50;;;8.35;39.47
5905;BME280;2978;42.012;24.880;2023-04-07T02:50:01;98569.84;;;8.34;39.37
5905;BME280;2978;42.012;24.880;2023-04-07T02:52:26;98565.44;;;8.28;39.22
5905;BME280;2978;42.012;24.880;2023-04-07T02:54:52;98574.66;;;8.22;39.59
5905;BME280;2978;42.012;24.880;2023-04-07T02:57:17;98563.94;;;8.15;39.85
5905;BME280;2978;42.012;24.880;2023-04-07T02:59:43;98572.16;;;8.15;39.95
5905;BME280;2978;42.012;24.880;2023-04-07T03:02:08;98565.06;;;8.14;39.98
5905;BME280;2978;42.012;24.880;2023-04-07T03:04:34;98572.19;;;8.20;40.07
5905;BME280;2978;42.012;24.880;2023-04-07T03:06:59;98571.41;;;8.25;40.17
5905;BME280;2978;42.012;24.880;2023-04-07T03:09:25;98565.84;;;8.15;39.86
5905;BME280;2978;42.012;24.880;2023-04-07T03:11:51;98571.56;;;8.08;40.36
5905;BME280;2978;42.012;24.880;2023-04-07T03:14:16;98566.94;;;8.09;39.53
5905;BME280;2978;42.012;24.880;2023-04-07T03:16:42;98561.22;;;8.15;39.64
5905;BME280;2978;42.012;24.880;2023-04-07T03:19:08;98559.78;;;8.08;39.79
5905;BME280;2978;42.012;24.880;2023-04-07T03:21:36;98568.84;;;8.08;39.58
5905;BME280;2978;42.012;24.880;2023-04-07T03:24:01;98572.09;;;8.05;39.61
5905;BME280;2978;42.012;24.880;2023-04-07T03:26:27;98566.66;;;8.10;39.45
5905;BME280;2978;42.012;24.880;2023-04-07T03:28:52;98569.41;;;8.10;39.43
5905;BME280;2978;42.012;24.880;2023-04-07T03:31:18;98580.94;;;8.17;39.31
5905;BME280;2978;42.012;24.880;2023-04-07T03:33:43;98575.75;;;8.16;39.66
5905;BME280;2978;42.012;24.880;2023-04-07T03:36:09;98573.91;;;8.26;39.38
5905;BME280;2978;42.012;24.880;2023-04-07T03:38:35;98579.41;;;8.26;39.31
5905;BME280;2978;42.012;24.880;2023-04-07T03:41:00;98566.28;;;8.33;38.80
5905;BME280;2978;42.012;24.880;2023-04-07T03:43:26;98573.94;;;8.31;39.56
5905;BME280;2978;42.012;24.880;2023-04-07T03:45:52;98575.63;;;8.42;39.01
5905;BME280;2978;42.012;24.880;2023-04-07T03:48:18;98585.69;;;8.27;38.98
5905;BME280;2978;42.012;24.880;2023-04-07T03:50:44;98581.50;;;8.19;38.80
5905;BME280;2978;42.012;24.880;2023-04-07T03:53:10;98593.00;;;8.21;39.49
5905;BME280;2978;42.012;24.880;2023-04-07T03:55:36;98593.00;;;8.21;39.33
5905;BME280;2978;42.012;24.880;2023-04-07T03:58:01;98602.03;;;8.22;38.90
5905;BME280;2978;42.012;24.880;2023-04-07T04:00:27;98596.38;;;8.28;38.94
5905;BME280;2978;42.012;24.880;2023-04-07T04:02:52;98597.22;;;8.34;39.27
5905;BME280;2978;42.012;24.880;2023-04-07T04:05:18;98599.16;;;8.33;38.55
5905;BME280;2978;42.012;24.880;2023-04-07T04:07:43;98598.66;;;8.41;38.53
5905;BME280;2978;42.012;24.880;2023-04-07T04:10:09;98583.25;;;8.35;38.70
5905;BME280;2978;42.012;24.880;2023-04-07T04:12:35;98601.13;;;8.43;38.96
5905;BME280;2978;42.012;24.880;2023-04-07T04:15:00;98590.69;;;8.35;38.26
5905;BME280;2978;42.012;24.880;2023-04-07T04:17:26;98599.19;;;8.38;38.80
5905;BME280;2978;42.012;24.880;2023-04-07T04:19:51;98604.09;;;8.36;38.95
5905;BME280;2978;42.012;24.880;2023-04-07T04:22:18;98608.78;;;8.41;38.71
5905;BME280;2978;42.012;24.880;2023-04-07T04:24:44;98613.19;;;8.42;38.98
5905;BME280;2978;42.012;24.880;2023-04-07T04:27:09;98610.44;;;8.42;38.32
5905;BME280;2978;42.012;24.880;2023-04-07T04:29:35;98616.50;;;8.49;38.63
5905;BME280;2978;42.012;24.880;2023-04-07T04:32:01;98621.16;;;8.48;38.09
5905;BME280;2978;42.012;24.880;2023-04-07T04:34:26;98615.16;;;8.56;38.49
5905;BME280;2978;42.012;24.880;2023-04-07T04:36:51;98612.22;;;8.63;38.14
5905;BME280;2978;42.012;24.880;2023-04-07T04:39:17;98621.25;;;8.68;38.47
5905;BME280;2978;42.012;24.880;2023-04-07T04:41:43;98620.75;;;8.71;37.98
5905;BME280;2978;42.012;24.880;2023-04-07T04:44:09;98623.50;;;8.76;38.18
5905;BME280;2978;42.012;24.880;2023-04-07T04:46:34;98624.28;;;8.72;38.32
5905;BME280;2978;42.012;24.880;2023-04-07T04:48:59;98631.13;;;8.64;37.48
5905;BME280;2978;42.012;24.880;2023-04-07T04:51:25;98636.06;;;8.67;38.61
5905;BME280;2978;42.012;24.880;2023-04-07T04:53:51;98630.06;;;8.80;38.00
5905;BME280;2978;42.012;24.880;2023-04-07T04:56:17;98630.72;;;8.97;37.81
5905;BME280;2978;42.012;24.880;2023-04-07T04:58:42;98635.41;;;9.07;37.47
5905;BME280;2978;42.012;24.880;2023-04-07T05:01:11;98634.63;;;9.17;37.09
5905;BME280;2978;42.012;24.880;2023-04-07T05:03:36;98640.16;;;9.27;37.10
5905;BME280;2978;42.012;24.880;2023-04-07T05:06:02;98635.78;;;9.31;36.88
5905;BME280;2978;42.012;24.880;2023-04-07T05:08:28;98639.13;;;9.48;36.69
5905;BME280;2978;42.012;24.880;2023-04-07T05:10:53;98641.59;;;9.54;36.44
5905;BME280;2978;42.012;24.880;2023-04-07T05:13:20;98638.63;;;9.71;36.75
5905;BME280;2978;42.012;24.880;2023-04-07T05:15:45;98653.16;;;9.71;35.61
5905;BME280;2978;42.012;24.880;2023-04-07T05:18:11;98646.59;;;9.82;35.96
5905;BME280;2978;42.012;24.880;2023-04-07T05:20:36;98651.00;;;9.93;35.91
5905;BME280;2978;42.012;24.880;2023-04-07T05:23:02;98654.31;;;10.15;35.53
5905;BME280;2978;42.012;24.880;2023-04-07T05:25:28;98660.38;;;10.12;35.25
5905;BME280;2978;42.012;24.880;2023-04-07T05:27:53;98652.94;;;10.28;35.76
5905;BME280;2978;42.012;24.880;2023-04-07T05:30:19;98651.56;;;10.36;34.80
5905;BME280;2978;42.012;24.880;2023-04-07T05:32:44;98662.81;;;10.29;34.92
5905;BME280;2978;42.012;24.880;2023-04-07T05:35:10;98667.50;;;10.34;34.73
5905;BME280;2978;42.012;24.880;2023-04-07T05:37:35;98666.38;;;10.45;34.35
5905;BME280;2978;42.012;24.880;2023-04-07T05:40:01;98668.34;;;10.44;34.57
5905;BME280;2978;42.012;24.880;2023-04-07T05:42:26;98667.50;;;10.44;34.42
5905;BME280;2978;42.012;24.880;2023-04-07T05:44:52;98660.09;;;10.44;34.39
5905;BME280;2978;42.012;24.880;2023-04-07T05:47:17;98666.09;;;10.46;34.56
5905;BME280;2978;42.012;24.880;2023-04-07T05:49:44;98665.00;;;10.52;34.29
5905;BME280;2978;42.012;24.880;2023-04-07T05:52:13;98671.63;;;10.56;34.44
5905;BME280;2978;42.012;24.880;2023-04-07T05:54:38;98673.25;;;10.57;34.55
5905;BME280;2978;42.012;24.880;2023-04-07T05:57:07;98663.91;;;10.58;34.24
5905;BME280;2978;42.012;24.880;2023-04-07T05:59:33;98660.63;;;10.51;34.84
5905;BME280;2978;42.012;24.880;2023-04-07T06:01:59;98657.84;;;10.61;34.31
5905;BME280;2978;42.012;24.880;2023-04-07T06:04:25;98651.78;;;10.69;34.61
5905;BME280;2978;42.012;24.880;2023-04-07T06:06:50;98668.78;;;10.81;34.09
5905;BME280;2978;42.012;24.880;2023-04-07T06:09:22;98665.50;;;10.79;34.18
5905;BME280;2978;42.012;24.880;2023-04-07T06:11:47;98664.94;;;10.87;34.20
5905;BME280;2978;42.012;24.880;2023-04-07T06:14:13;98667.16;;;10.85;34.11
5905;BME280;2978;42.012;24.880;2023-04-07T06:16:38;98668.50;;;10.98;33.88
5905;BME280;2978;42.012;24.880;2023-04-07T06:19:04;98669.28;;;11.08;33.30
5905;BME280;2978;42.012;24.880;2023-04-07T06:21:31;98676.66;;;11.18;33.52
5905;BME280;2978;42.012;24.880;2023-04-07T06:23:57;98690.03;;;11.45;33.25
5905;BME280;2978;42.012;24.880;2023-04-07T06:26:22;98674.34;;;11.45;32.71
5905;BME280;2978;42.012;24.880;2023-04-07T06:28:48;98678.41;;;11.63;32.39
5905;BME280;2978;42.012;24.880;2023-04-07T06:31:13;98687.72;;;11.77;32.43
5905;BME280;2978;42.012;24.880;2023-04-07T06:33:39;98690.06;;;11.93;32.33
5905;BME280;2978;42.012;24.880;2023-04-07T06:36:04;98683.06;;;12.11;31.56
5905;BME280;2978;42.012;24.880;2023-04-07T06:38:30;98695.22;;;12.10;31.87
5905;BME280;2978;42.012;24.880;2023-04-07T06:40:56;98682.88;;;11.97;31.60
5905;BME280;2978;42.012;24.880;2023-04-07T06:43:21;98700.75;;;12.38;31.73
5905;BME280;2978;42.012;24.880;2023-04-07T06:45:46;98693.13;;;12.30;31.72
5905;BME280;2978;42.012;24.880;2023-04-07T06:48:12;98694.59;;;12.52;31.96
5905;BME280;2978;42.012;24.880;2023-04-07T06:50:37;98686.22;;;12.62;31.33
5905;BME280;2978;42.012;24.880;2023-04-07T06:53:03;98698.44;;;12.51;30.95
5905;BME280;2978;42.012;24.880;2023-04-07T06:55:29;98693.59;;;12.04;31.84
5905;BME280;2978;42.012;24.880;2023-04-07T06:57:54;98702.81;;;12.23;32.09
5905;BME280;2978;42.012;24.880;2023-04-07T07:00:20;98704.09;;;12.35;31.97
5905;BME280;2978;42.012;24.880;2023-04-07T07:02:47;98697.78;;;12.64;31.55
5905;BME280;2978;42.012;24.880;2023-04-07T07:05:13;98702.09;;;12.46;31.46
5905;BME280;2978;42.012;24.880;2023-04-07T07:07:38;98706.84;;;12.35;31.65
5905;BME280;2978;42.012;24.880;2023-04-07T07:10:04;98704.00;;;12.45;31.32
5905;BME280;2978;42.012;24.880;2023-04-07T07:12:30;98704.69;;;12.61;31.34
5905;BME280;2978;42.012;24.880;2023-04-07T07:14:56;98707.84;;;12.78;31.34
5905;BME280;2978;42.012;24.880;2023-04-07T07:17:21;98709.47;;;12.84;30.23
5905;BME280;2978;42.012;24.880;2023-04-07T07:19:47;98707.66;;;12.70;30.50
5905;BME280;2978;42.012;24.880;2023-04-07T07:22:12;98711.28;;;12.65;30.96
5905;BME280;2978;42.012;24.880;2023-04-07T07:24:38;98714.84;;;12.37;31.57
5905;BME280;2978;42.012;24.880;2023-04-07T07:27:03;98713.13;;;12.07;31.50
5905;BME280;2978;42.012;24.880;2023-04-07T07:29:28;98710.25;;;12.22;31.64
5905;BME280;2978;42.012;24.880;2023-04-07T07:31:54;98705.88;;;12.21;31.64
5905;BME280;2978;42.012;24.880;2023-04-07T07:34:19;98708.91;;;12.20;31.98
5905;BME280;2978;42.012;24.880;2023-04-07T07:36:45;98715.41;;;12.34;31.91
5905;BME280;2978;42.012;24.880;2023-04-07T07:39:10;98711.69;;;12.48;31.31
5905;BME280;2978;42.012;24.880;2023-04-07T07:41:35;98716.97;;;12.45;30.79
5905;BME280;2978;42.012;24.880;2023-04-07T07:44:01;98710.47;;;12.31;31.61
5905;BME280;2978;42.012;24.880;2023-04-07T07:46:26;98708.50;;;12.36;32.28
5905;BME280;2978;42.012;24.880;2023-04-07T07:48:52;98715.38;;;12.39;31.91
5905;BME280;2978;42.012;24.880;2023-04-07T07:51:17;98707.44;;;12.27;32.35
5905;BME280;2978;42.012;24.880;2023-04-07T07:53:43;98708.31;;;12.23;33.13
5905;BME280;2978;42.012;24.880;2023-04-07T07:56:09;98706.81;;;12.02;32.35
5905;BME280;2978;42.012;24.880;2023-04-07T07:58:36;98710.19;;;11.94;32.41
5905;BME280;2978;42.012;24.880;2023-04-07T08:01:07;98699.28;;;11.74;32.41
5905;BME280;2978;42.012;24.880;2023-04-07T08:03:32;98708.13;;;11.61;32.85
5905;BME280;2978;42.012;24.880;2023-04-07T08:05:58;98713.41;;;11.52;33.16
5905;BME280;2978;42.012;24.880;2023-04-07T08:08:23;98704.66;;;11.40;32.81
5905;BME280;2978;42.012;24.880;2023-04-07T08:10:49;98707.13;;;11.42;33.30
5905;BME280;2978;42.012;24.880;2023-04-07T08:13:14;98709.91;;;11.37;32.75
5905;BME280;2978;42.012;24.880;2023-04-07T08:15:40;98700.50;;;11.43;33.15
5905;BME280;2978;42.012;24.880;2023-04-07T08:18:05;98707.06;;;11.52;32.86
5905;BME280;2978;42.012;24.880;2023-04-07T08:20:32;98703.25;;;11.43;33.27
5905;BME280;2978;42.012;24.880;2023-04-07T08:22:58;98684.53;;;11.45;32.68
5905;BME280;2978;42.012;24.880;2023-04-07T08:25:24;98692.72;;;11.60;32.43
5905;BME280;2978;42.012;24.880;2023-04-07T08:27:50;98700.13;;;11.69;33.13
5905;BME280;2978;42.012;24.880;2023-04-07T08:30:15;98701.47;;;11.72;32.80
5905;BME280;2978;42.012;24.880;2023-04-07T08:32:43;98696.81;;;11.72;33.02
5905;BME280;2978;42.012;24.880;2023-04-07T08:35:10;98696.50;;;11.79;32.70
5905;BME280;2978;42.012;24.880;2023-04-07T08:37:37;98696.19;;;11.80;33.47
5905;BME280;2978;42.012;24.880;2023-04-07T08:40:03;98684.28;;;11.95;33.08
5905;BME280;2978;42.012;24.880;2023-04-07T08:42:30;98689.66;;;12.15;33.06
5905;BME280;2978;42.012;24.880;2023-04-07T08:44:57;98693.09;;;11.97;33.09
5905;BME280;2978;42.012;24.880;2023-04-07T08:47:24;98688.94;;;11.94;32.64
5905;BME280;2978;42.012;24.880;2023-04-07T08:49:52;98691.66;;;12.04;33.19
5905;BME280;2978;42.012;24.880;2023-04-07T08:52:21;98678.91;;;12.13;33.04
5905;BME280;2978;42.012;24.880;2023-04-07T08:54:48;98679.69;;;12.19;32.97
5905;BME280;2978;42.012;24.880;2023-04-07T08:57:14;98688.69;;;12.29;32.72
5905;BME280;2978;42.012;24.880;2023-04-07T08:59:41;98690.88;;;11.99;33.69
5905;BME280;2978;42.012;24.880;2023-04-07T09:02:09;98682.81;;;12.07;32.95
5905;BME280;2978;42.012;24.880;2023-04-07T09:04:35;98687.59;;;12.30;33.44
5905;BME280;2978;42.012;24.880;2023-04-07T09:07:01;98681.16;;;12.40;32.71
5905;BME280;2978;42.012;24.880;2023-04-07T09:09:27;98698.16;;;12.52;33.22
5905;BME280;2978;42.012;24.880;2023-04-07T09:11:52;98681.41;;;12.43;33.19
5905;BME280;2978;42.012;24.880;2023-04-07T09:14:17;98680.81;;;12.46;32.98
5905;BME280;2978;42.012;24.880;2023-04-07T09:16:45;98673.44;;;12.42;33.02
5905;BME280;2978;42.012;24.880;2023-04-07T09:19:11;98681.72;;;12.42;33.80
5905;BME280;2978;42.012;24.880;2023-04-07T09:24:25;98694.16;;;12.39;32.91
5905;BME280;2978;42.012;24.880;2023-04-07T09:27:17;98690.66;;;12.29;33.25
5905;BME280;2978;42.012;24.880;2023-04-07T09:29:45;98690.06;;;12.32;33.64
5905;BME280;2978;42.012;24.880;2023-04-07T09:32:11;98678.25;;;12.60;33.19
5905;BME280;2978;42.012;24.880;2023-04-07T09:34:39;98676.16;;;13.04;32.50
5905;BME280;2978;42.012;24.880;2023-04-07T09:37:06;98673.22;;;13.19;32.59
5905;BME280;2978;42.012;24.880;2023-04-07T09:39:47;98671.34;;;13.38;31.89
5905;BME280;2978;42.012;24.880;2023-04-07T09:42:13;98665.81;;;13.38;31.93
5905;BME280;2978;42.012;24.880;2023-04-07T09:44:39;98666.03;;;13.42;31.88
5905;BME280;2978;42.012;24.880;2023-04-07T09:47:07;98669.69;;;13.37;32.21
5905;BME280;2978;42.012;24.880;2023-04-07T09:49:48;98673.69;;;13.26;33.10
5905;BME280;2978;42.012;24.880;2023-04-07T09:52:14;98669.41;;;13.15;33.23
5905;BME280;2978;42.012;24.880;2023-04-07T09:54:40;98666.16;;;13.08;33.04
5905;BME280;2978;42.012;24.880;2023-04-07T09:57:08;98678.91;;;13.04;33.50
5905;BME280;2978;42.012;24.880;2023-04-07T09:59:35;98676.69;;;13.06;33.61
5905;BME280;2978;42.012;24.880;2023-04-07T10:02:02;98664.78;;;13.11;33.49
5905;BME280;2978;42.012;24.880;2023-04-07T10:04:28;98674.25;;;13.23;33.32
5905;BME280;2978;42.012;24.880;2023-04-07T10:06:55;98665.47;;;13.21;32.88
5905;BME280;2978;42.012;24.880;2023-04-07T10:09:27;98655.59;;;13.15;33.29
5905;BME280;2978;42.012;24.880;2023-04-07T10:12:02;98665.13;;;12.99;33.16
5905;BME280;2978;42.012;24.880;2023-04-07T10:14:31;98667.25;;;13.12;33.46
5905;BME280;2978;42.012;24.880;2023-04-07T10:16:59;98655.47;;;13.25;34.04
5905;BME280;2978;42.012;24.880;2023-04-07T10:19:29;98665.81;;;13.38;33.49
5905;BME280;2978;42.012;24.880;2023-04-07T10:21:58;98661.06;;;13.44;34.42
5905;BME280;2978;42.012;24.880;2023-04-07T10:24:43;98665.66;;;13.30;34.22
5905;BME280;2978;42.012;24.880;2023-04-07T10:27:15;98669.63;;;13.19;33.92
5905;BME280;2978;42.012;24.880;2023-04-07T10:29:44;98668.63;;;13.10;34.36
5905;BME280;2978;42.012;24.880;2023-04-07T10:32:10;98665.50;;;13.16;34.13
5905;BME280;2978;42.012;24.880;2023-04-07T10:37:22;98656.00;;;13.27;34.03
5905;BME280;2978;42.012;24.880;2023-04-07T10:39:49;98658.59;;;13.19;34.89
5905;BME280;2978;42.012;24.880;2023-04-07T10:45:01;98665.66;;;13.01;35.16
5905;BME280;2978;42.012;24.880;2023-04-07T10:47:28;98661.19;;;13.10;35.35
5905;BME280;2978;42.012;24.880;2023-04-07T10:50:16;98653.84;;;13.24;35.02
5905;BME280;2978;42.012;24.880;2023-04-07T10:52:42;98648.84;;;13.26;35.36
5905;BME280;2978;42.012;24.880;2023-04-07T10:58:31;98644.91;;;13.32;35.41
5905;BME280;2978;42.012;24.880;2023-04-07T11:03:30;98650.94;;;13.34;36.03
5905;BME280;2978;42.012;24.880;2023-04-07T11:06:09;98652.06;;;13.33;35.83
5905;BME280;2978;42.012;24.880;2023-04-07T11:08:40;98647.72;;;13.27;35.76
5905;BME280;2978;42.012;24.880;2023-04-07T11:11:10;98637.28;;;13.24;35.55
5905;BME280;2978;42.012;24.880;2023-04-07T11:13:40;98645.22;;;13.49;35.86
5905;BME280;2978;42.012;24.880;2023-04-07T11:16:06;98640.97;;;13.57;35.32
5905;BME280;2978;42.012;24.880;2023-04-07T11:18:33;98633.97;;;13.65;35.50
5905;BME280;2978;42.012;24.880;2023-04-07T11:20:59;98631.22;;;13.65;36.44
5905;BME280;2978;42.012;24.880;2023-04-07T11:23:25;98648.72;;;13.55;36.33
5905;BME280;2978;42.012;24.880;2023-04-07T11:26:00;98643.72;;;13.38;36.58
5905;BME280;2978;42.012;24.880;2023-04-07T11:28:26;98658.16;;;13.30;37.12
5905;BME280;2978;42.012;24.880;2023-04-07T11:30:53;98638.16;;;13.20;37.00
5905;BME280;2978;42.012;24.880;2023-04-07T11:33:31;98632.06;;;13.23;36.79
5905;BME280;2978;42.012;24.880;2023-04-07T11:36:01;98633.84;;;13.32;37.04
5905;BME280;2978;42.012;24.880;2023-04-07T11:38:35;98639.22;;;13.42;36.71
5905;BME280;2978;42.012;24.880;2023-04-07T11:41:10;98634.47;;;13.48;37.16
5905;BME280;2978;42.012;24.880;2023-04-07T11:43:36;98643.59;;;13.48;37.57
5905;BME280;2978;42.012;24.880;2023-04-07T11:46:03;98627.63;;;13.45;36.90
5905;BME280;2978;42.012;24.880;2023-04-07T11:48:30;98636.88;;;13.54;37.07
5905;BME280;2978;42.012;24.880;2023-04-07T11:50:56;98621.72;;;13.52;37.80
5905;BME280;2978;42.012;24.880;2023-04-07T11:53:35;98622.78;;;13.56;37.71
5905;BME280;2978;42.012;24.880;2023-04-07T11:56:09;98626.09;;;13.53;38.50
5905;BME280;2978;42.012;24.880;2023-04-07T11:58:35;98627.16;;;13.38;37.49
5905;BME280;2978;42.012;24.880;2023-04-07T12:01:03;98630.16;;;13.42;38.02
5905;BME280;2978;42.012;24.880;2023-04-07T12:03:34;98636.28;;;13.57;37.55
5905;BME280;2978;42.012;24.880;2023-04-07T12:06:04;98626.94;;;13.53;37.29
5905;BME280;2978;42.012;24.880;2023-04-07T12:08:56;98620.16;;;13.65;38.17
5905;BME280;2978;42.012;24.880;2023-04-07T12:11:21;98628.38;;;13.70;38.15
5905;BME280;2978;42.012;24.880;2023-04-07T12:13:46;98628.97;;;13.67;37.94
5905;BME280;2978;42.012;24.880;2023-04-07T12:16:12;98626.47;;;13.65;38.27
5905;BME280;2978;42.012;24.880;2023-04-07T12:18:37;98638.16;;;13.81;38.15
5905;BME280;2978;42.012;24.880;2023-04-07T12:21:03;98631.72;;;13.85;38.56
5905;BME280;2978;42.012;24.880;2023-04-07T12:23:28;98617.44;;;13.97;38.11
5905;BME280;2978;42.012;24.880;2023-04-07T12:25:54;98627.03;;;13.86;38.32
5905;BME280;2978;42.012;24.880;2023-04-07T12:28:20;98615.81;;;13.96;37.84
5905;BME280;2978;42.012;24.880;2023-04-07T12:30:45;98609.47;;;13.95;38.25
5905;BME280;2978;42.012;24.880;2023-04-07T12:33:11;98612.78;;;14.11;37.93
5905;BME280;2978;42.012;24.880;2023-04-07T12:35:37;98611.38;;;13.95;38.39
5905;BME280;2978;42.012;24.880;2023-04-07T12:38:03;98601.03;;;13.87;38.46
5905;BME280;2978;42.012;24.880;2023-04-07T12:40:29;98622.91;;;13.83;38.59
5905;BME280;2978;42.012;24.880;2023-04-07T12:42:55;98607.31;;;13.92;38.56
5905;BME280;2978;42.012;24.880;2023-04-07T12:45:23;98601.38;;;13.99;38.77
5905;BME280;2978;42.012;24.880;2023-04-07T12:47:48;98604.06;;;14.04;39.28
5905;BME280;2978;42.012;24.880;2023-04-07T12:50:14;98595.72;;;13.90;39.01
5905;BME280;2978;42.012;24.880;2023-04-07T12:52:40;98584.81;;;13.99;38.66
5905;BME280;2978;42.012;24.880;2023-04-07T12:55:05;98588.88;;;14.20;38.52
5905;BME280;2978;42.012;24.880;2023-04-07T12:57:31;98589.84;;;14.29;38.89
5905;BME280;2978;42.012;24.880;2023-04-07T12:59:56;98587.91;;;14.29;39.06
5905;BME280;2978;42.012;24.880;2023-04-07T13:02:22;98591.94;;;14.18;39.39
5905;BME280;2978;42.012;24.880;2023-04-07T13:04:48;98585.53;;;14.04;39.46
5905;BME280;2978;42.012;24.880;2023-04-07T13:07:14;98581.84;;;14.09;38.78
5905;BME280;2978;42.012;24.880;2023-04-07T13:09:40;98581.94;;;14.22;39.26
5905;BME280;2978;42.012;24.880;2023-04-07T13:12:09;98583.09;;;14.35;38.71
5905;BME280;2978;42.012;24.880;2023-04-07T13:14:37;98575.53;;;14.54;38.35
5905;BME280;2978;42.012;24.880;2023-04-07T13:17:03;98570.56;;;14.70;38.26
5905;BME280;2978;42.012;24.880;2023-04-07T13:19:29;98570.94;;;14.63;39.13
5905;BME280;2978;42.012;24.880;2023-04-07T13:21:55;98575.06;;;14.65;38.90
5905;BME280;2978;42.012;24.880;2023-04-07T13:24:20;98584.19;;;14.66;38.96
5905;BME280;2978;42.012;24.880;2023-04-07T13:26:46;98570.84;;;14.68;38.57
5905;BME280;2978;42.012;24.880;2023-04-07T13:29:11;98583.78;;;14.59;39.03
5905;BME280;2978;42.012;24.880;2023-04-07T13:31:37;98584.22;;;14.34;39.92
5905;BME280;2978;42.012;24.880;2023-04-07T13:34:02;98586.78;;;14.30;40.04
5905;BME280;2978;42.012;24.880;2023-04-07T13:36:28;98572.88;;;14.49;39.26
5905;BME280;2978;42.012;24.880;2023-04-07T13:38:54;98588.38;;;14.77;39.14